Time;durP1;ratioP1;P1;durP2;ratioP2;P2;SDS_P1;SDS_P2;PMS_P1;PMS_P2;Temp;Humidity;BMP_temperature;BMP_pressure;BME280_temperature;BME280_humidity;BME280_pressure;Samples;Min_cycle;Max_cycle;Signal;HPM_P1;HPM_P2
2023/04/04 00:01:18;;;;;;;4.13;2.70;;;;;;;-146.27;43.83;83700.16;5090796;28;20063;-68
2023/04/04 00:03:43;;;;;;;6.38;1.98;;;;;;;-146.27;44.05;83698.16;5086219;28;20056;-67
2023/04/04 00:06:09;;;;;;;4.65;2.45;;;;;;;-146.27;43.09;83686.09;5085340;28;20028;-68
2023/04/04 00:08:34;;;;;;;3.80;2.30;;;;;;;-146.27;43.71;83704.19;5090967;28;20030;-68
2023/04/04 00:11:00;;;;;;;5.57;2.55;;;;;;;-146.27;44.10;83708.22;5086222;28;20032;-66
2023/04/04 00:13:26;;;;;;;5.60;2.42;;;;;;;-146.27;43.38;83690.13;5086918;28;20458;-68
2023/04/04 00:15:52;;;;;;;6.93;2.17;;;;;;;-146.27;43.69;83716.25;5091462;28;20035;-68
2023/04/04 00:18:18;;;;;;;4.10;2.15;;;;;;;-146.27;43.27;83762.47;5089538;28;20064;-68
2023/04/04 00:20:43;;;;;;;7.75;2.70;;;;;;;-146.27;43.93;83698.16;5091027;28;20094;-67
2023/04/04 00:23:10;;;;;;;5.97;2.45;;;;;;;-146.27;43.92;83746.38;5088967;28;20473;-68
2023/04/04 00:25:36;;;;;;;6.13;2.35;;;;;;;-146.27;44.24;83742.38;5088961;28;20052;-68
2023/04/04 00:28:02;;;;;;;5.82;2.33;;;;;;;-146.27;44.43;83762.47;5086171;28;20024;-68
2023/04/04 00:30:28;;;;;;;5.25;2.50;;;;;;;-146.27;44.06;83756.44;5087672;28;20039;-68
2023/04/04 00:32:54;;;;;;;8.68;2.80;;;;;;;-146.27;44.58;83768.50;5080069;28;20028;-68
2023/04/04 00:35:19;;;;;;;5.40;2.22;;;;;;;-146.27;44.88;83754.44;5085642;28;20032;-67
2023/04/04 00:37:45;;;;;;;8.73;2.70;;;;;;;-146.27;44.65;83766.47;5087348;28;20044;-68
2023/04/04 00:40:11;;;;;;;3.33;2.35;;;;;;;-146.27;44.67;83794.63;5078485;28;20473;-67
2023/04/04 00:42:37;;;;;;;7.07;2.63;;;;;;;-146.27;43.87;83750.41;5085847;28;20038;-69
2023/04/04 00:45:03;;;;;;;3.33;2.33;;;;;;;-146.27;44.53;83794.63;5083696;28;20024;-68
2023/04/04 00:47:30;;;;;;;5.00;2.38;;;;;;;-146.27;45.00;83780.53;5089310;28;20023;-68
2023/04/04 00:49:55;;;;;;;7.70;2.45;;;;;;;-146.27;44.88;83838.81;5076524;28;20032;-68
2023/04/04 00:52:21;;;;;;;7.43;2.60;;;;;;;-146.27;44.91;83798.63;5079539;28;20097;-67
2023/04/04 00:54:46;;;;;;;7.28;3.50;;;;;;;-146.27;45.21;83686.09;5079302;28;20050;-67
2023/04/04 00:57:12;;;;;;;7.20;2.35;;;;;;;-146.27;45.36;83766.47;5088364;28;20462;-67
2023/04/04 00:59:38;;;;;;;3.63;2.20;;;;;;;-146.27;46.98;83754.44;5089674;28;20032;-68
2023/04/04 01:02:04;;;;;;;4.00;2.10;;;;;;;-146.27;45.62;83746.38;5077790;28;20036;-67
2023/04/04 01:04:30;;;;;;;4.47;2.30;;;;;;;-146.27;44.80;83754.44;5083865;28;20033;-67
2023/04/04 01:06:55;;;;;;;6.05;2.58;;;;;;;-146.27;46.32;83738.34;5085493;28;20040;-68
2023/04/04 01:09:22;;;;;;;7.10;2.50;;;;;;;-146.27;45.49;83766.47;5086893;28;20040;-68
2023/04/04 01:11:48;;;;;;;3.63;2.40;;;;;;;-146.27;45.81;83814.72;5087233;28;20024;-67
2023/04/04 01:14:13;;;;;;;9.27;2.15;;;;;;;-146.27;46.69;83826.75;5083131;28;20042;-67
2023/04/04 01:16:40;;;;;;;11.05;2.90;;;;;;;-146.27;47.56;83820.75;5090367;28;20384;-68
2023/04/04 01:19:10;;;;;;;6.22;2.72;;;;;;;-146.27;47.96;83868.97;5072822;28;20040;-68
2023/04/04 01:21:36;;;;;;;7.68;3.08;;;;;;;-146.27;47.83;83826.75;5079186;28;20380;-68
2023/04/04 01:24:02;;;;;;;4.60;2.72;;;;;;;-146.27;46.68;83870.97;5082365;28;20480;-68
2023/04/04 01:26:28;;;;;;;6.70;2.55;;;;;;;-146.27;46.42;83818.72;5076166;28;20019;-68
2023/04/04 01:28:54;;;;;;;4.03;2.30;;;;;;;-146.27;47.80;83814.72;5072297;28;20111;-68
2023/04/04 01:31:27;;;;;;;5.35;2.63;;;;;;;-146.27;48.05;83810.69;5075568;28;20032;-68
2023/04/04 01:34:01;;;;;;;5.05;2.50;;;;;;;-146.27;47.65;83840.84;5089336;28;20472;-67
2023/04/04 01:36:41;;;;;;;5.63;2.33;;;;;;;-146.27;46.97;83844.84;5088150;28;20030;-68
2023/04/04 01:39:17;;;;;;;10.98;2.80;;;;;;;-146.27;47.92;83842.84;5084338;28;20030;-67
2023/04/04 01:41:47;;;;;;;4.43;2.45;;;;;;;-146.27;47.54;83868.97;5080028;28;20808;-66
2023/04/04 01:44:14;;;;;;;5.50;2.72;;;;;;;-146.27;47.30;83870.97;5076884;28;20438;-69
2023/04/04 01:46:40;;;;;;;4.97;2.60;;;;;;;-146.27;49.02;83903.13;5087181;28;20472;-67
2023/04/04 01:49:05;;;;;;;6.35;2.35;;;;;;;-146.27;48.95;83887.06;5080268;28;20020;-67
2023/04/04 01:51:31;;;;;;;6.93;2.70;;;;;;;-146.27;48.28;83854.91;5090174;28;20123;-67
2023/04/04 01:53:56;;;;;;;8.48;2.67;;;;;;;-146.27;47.73;83854.91;5081598;28;20032;-67
2023/04/04 01:56:22;;;;;;;6.38;2.30;;;;;;;-146.27;47.56;83870.97;5081943;28;20031;-68
2023/04/04 01:58:47;;;;;;;7.18;2.75;;;;;;;-146.27;48.50;83864.94;5087772;28;20475;-68
2023/04/04 02:01:13;;;;;;;5.05;2.30;;;;;;;-146.27;48.94;83939.31;5087951;28;20042;-68
2023/04/04 02:03:38;;;;;;;4.82;2.72;;;;;;;-146.27;49.49;83933.28;5084089;28;20032;-68
2023/04/04 02:06:04;;;;;;;6.93;2.33;;;;;;;-146.27;49.20;83931.25;5072296;28;20016;-66
2023/04/04 02:08:29;;;;;;;5.70;3.15;;;;;;;-146.27;49.86;83943.31;5087389;28;20464;-67
2023/04/04 02:10:58;;;;;;;5.05;2.80;;;;;;;-146.27;50.67;83955.38;5077755;28;20040;-67
2023/04/04 02:13:23;;;;;;;5.32;2.47;;;;;;;-146.27;49.87;83933.28;5087335;28;20070;-68
2023/04/04 02:15:50;;;;;;;5.88;3.00;;;;;;;-146.27;49.84;83919.19;5094619;28;20115;-67
2023/04/04 02:18:15;;;;;;;3.00;2.30;;;;;;;-146.27;49.66;83911.16;5097516;28;20080;-68
2023/04/04 02:20:41;;;;;;;5.72;2.45;;;;;;;-146.27;49.52;83953.38;5080933;28;20115;-68
2023/04/04 02:23:06;;;;;;;4.68;2.45;;;;;;;-146.27;48.70;83891.06;5087377;28;20456;-68
2023/04/04 02:25:31;;;;;;;5.93;2.95;;;;;;;-146.27;48.76;83891.06;5094027;28;20028;-67
2023/04/04 02:27:57;;;;;;;5.68;2.97;;;;;;;-146.27;48.58;83935.28;5089336;28;20028;-68
2023/04/04 02:30:22;;;;;;;5.80;2.80;;;;;;;-146.27;47.60;83955.38;5083018;28;20031;-69
2023/04/04 02:32:49;;;;;;;7.78;2.60;;;;;;;-146.27;49.18;83989.53;5088541;28;20111;-68
2023/04/04 02:35:15;;;;;;;5.70;2.30;;;;;;;-146.27;47.71;83919.19;5094875;28;20055;-67
2023/04/04 02:37:43;;;;;;;9.77;2.70;;;;;;;-146.27;47.76;83959.41;5093542;28;20020;-68
2023/04/04 02:40:09;;;;;;;4.50;2.50;;;;;;;-146.27;47.49;83929.25;5082798;28;20376;-67
2023/04/04 02:42:34;;;;;;;7.60;2.55;;;;;;;-146.27;47.92;83973.47;5087478;28;20028;-67
2023/04/04 02:45:00;;;;;;;4.68;2.80;;;;;;;-146.27;48.57;83961.41;5094098;28;20107;-68
2023/04/04 02:47:25;;;;;;;12.57;3.33;;;;;;;-146.27;48.00;83995.56;5093975;28;20549;-68
2023/04/04 02:49:51;;;;;;;4.60;2.63;;;;;;;-146.27;48.70;83979.50;5093374;28;20035;-68
2023/04/04 02:52:16;;;;;;;3.67;2.25;;;;;;;-146.27;47.74;83941.31;5088979;28;20024;-68
2023/04/04 02:54:42;;;;;;;6.70;3.42;;;;;;;-146.27;49.00;84017.69;5086467;28;20081;-67
2023/04/04 02:57:07;;;;;;;7.88;2.85;;;;;;;-146.27;49.09;83985.53;5080859;28;20028;-67
2023/04/04 02:59:33;;;;;;;5.63;2.75;;;;;;;-146.27;50.10;83991.56;5079304;28;20026;-68
2023/04/04 03:01:58;;;;;;;5.53;2.50;;;;;;;-146.27;51.34;83997.56;5089040;28;20101;-67
2023/04/04 03:04:24;;;;;;;5.55;3.25;;;;;;;-146.27;51.24;84015.66;5083331;28;20028;-68
2023/04/04 03:06:49;;;;;;;6.30;2.88;;;;;;;-146.27;51.22;83987.53;5087204;28;20036;-68
2023/04/04 03:09:15;;;;;;;8.73;2.95;;;;;;;-146.27;54.16;84011.66;5083851;28;20045;-68
2023/04/04 03:11:40;;;;;;;8.38;3.42;;;;;;;-146.27;51.74;84039.78;5080455;28;20035;-68
2023/04/04 03:14:06;;;;;;;4.65;3.00;;;;;;;-146.27;52.75;84045.81;5085593;28;20020;-68
2023/04/04 03:16:31;;;;;;;8.75;2.80;;;;;;;-146.27;52.12;84019.69;5077474;28;20056;-66
2023/04/04 03:18:57;;;;;;;9.75;3.20;;;;;;;-146.27;51.29;84035.75;5084035;28;20103;-67
2023/04/04 03:21:22;;;;;;;4.63;2.97;;;;;;;-146.27;49.72;84023.69;5091843;28;20099;-67
2023/04/04 03:23:48;;;;;;;8.70;3.17;;;;;;;-146.27;51.63;84015.66;5091976;28;20383;-68
2023/04/04 03:26:14;;;;;;;4.57;2.78;;;;;;;-146.27;50.84;84017.69;5081432;28;20025;-68
2023/04/04 03:28:39;;;;;;;7.30;3.20;;;;;;;-146.27;52.01;83981.50;5090406;28;20028;-68
2023/04/04 03:31:05;;;;;;;6.68;3.30;;;;;;;-146.27;51.26;83999.59;5090622;28;20031;-68
2023/04/04 03:33:34;;;;;;;4.63;2.83;;;;;;;-146.27;51.43;84029.72;5078637;28;20128;-68
2023/04/04 03:36:00;;;;;;;4.78;3.10;;;;;;;-146.27;51.35;84047.81;5087028;28;20028;-67
2023/04/04 03:38:26;;;;;;;8.07;2.97;;;;;;;-146.27;52.25;84027.72;5085832;28;20016;-67
2023/04/04 03:41:00;;;;;;;5.15;3.10;;;;;;;-146.27;51.80;84017.69;5089569;28;21590;-68
2023/04/04 03:43:27;;;;;;;10.00;3.30;;;;;;;-146.27;50.76;84019.69;5092126;28;20028;-68
2023/04/04 03:45:52;;;;;;;7.05;3.58;;;;;;;-146.27;50.14;83999.59;5086541;28;20028;-67
2023/04/04 03:48:18;;;;;;;10.05;3.63;;;;;;;-146.27;50.95;84037.78;5077728;28;20032;-67
2023/04/04 03:50:43;;;;;;;7.00;2.78;;;;;;;-146.27;51.04;84035.75;5087345;28;20152;-68
2023/04/04 03:53:11;;;;;;;5.82;3.45;;;;;;;-146.27;52.14;84029.72;5081227;28;20017;-68
2023/04/04 03:55:40;;;;;;;8.02;3.05;;;;;;;-146.27;51.15;84045.81;5080459;28;20028;-69
2023/04/04 03:58:05;;;;;;;5.18;3.17;;;;;;;-146.27;52.01;84055.84;5085675;28;20039;-68
2023/04/04 04:00:31;;;;;;;18.70;10.75;;;;;;;-146.27;52.55;84067.91;5080190;28;20024;-68
2023/04/04 04:02:56;;;;;;;15.15;6.90;;;;;;;-146.27;54.04;84084.00;5079487;28;20019;-68
2023/04/04 04:05:21;;;;;;;11.38;5.05;;;;;;;-146.27;53.59;84096.06;5087696;28;20111;-68
2023/04/04 04:07:47;;;;;;;6.95;3.70;;;;;;;-146.27;51.42;84077.97;5092814;28;20024;-68
2023/04/04 04:10:15;;;;;;;6.85;3.67;;;;;;;-146.27;51.93;84096.06;5091674;28;20503;-68
2023/04/04 04:12:41;;;;;;;6.38;3.42;;;;;;;-146.27;52.90;84077.97;5082309;28;20031;-68
2023/04/04 04:15:07;;;;;;;7.85;3.97;;;;;;;-146.27;52.81;84116.16;5080831;28;20372;-69
2023/04/04 04:17:32;;;;;;;10.65;4.28;;;;;;;-146.27;54.38;84128.22;5087765;28;20084;-68
2023/04/04 04:19:58;;;;;;;6.22;3.65;;;;;;;-146.27;51.79;84104.09;5090829;28;20020;-68
2023/04/04 04:22:23;;;;;;;6.95;3.90;;;;;;;-146.27;51.19;84122.19;5081221;28;20604;-68
2023/04/04 04:24:48;;;;;;;6.93;3.88;;;;;;;-146.27;50.85;84122.19;5077094;28;20381;-67
2023/04/04 04:27:14;;;;;;;6.70;3.28;;;;;;;-146.27;50.19;84124.19;5079838;28;20063;-68
2023/04/04 04:29:39;;;;;;;6.78;3.33;;;;;;;-146.27;51.02;84120.16;5088367;28;20121;-67
2023/04/04 04:32:05;;;;;;;5.68;3.55;;;;;;;-146.27;50.87;84120.16;5091001;28;20020;-67
2023/04/04 04:34:31;;;;;;;8.30;3.72;;;;;;;-146.27;50.93;84140.25;5085352;28;20055;-68
2023/04/04 04:36:56;;;;;;;6.88;3.42;;;;;;;-146.27;50.73;84152.31;5090942;28;20034;-67
2023/04/04 04:39:22;;;;;;;9.63;3.80;;;;;;;-146.27;50.42;84124.19;5087506;28;20660;-68
2023/04/04 04:41:47;;;;;;;7.68;3.50;;;;;;;-146.27;51.24;84132.22;5090628;28;20039;-68
2023/04/04 04:44:12;;;;;;;8.75;3.83;;;;;;;-146.27;52.53;84136.25;5078630;28;20115;-67
2023/04/04 04:46:38;;;;;;;7.15;3.95;;;;;;;-146.27;53.15;84132.22;5088463;28;20032;-69
2023/04/04 04:49:04;;;;;;;7.82;3.97;;;;;;;-146.27;54.42;84128.22;5087555;28;20432;-68
2023/04/04 04:51:29;;;;;;;6.18;4.10;;;;;;;-146.27;55.82;84200.56;5084382;28;20032;-68
2023/04/04 04:53:55;;;;;;;12.40;4.70;;;;;;;-146.27;54.46;84166.38;5082518;28;20044;-68
2023/04/04 04:56:21;;;;;;;9.80;4.53;;;;;;;-146.27;54.11;84136.25;5083013;28;20020;-68
2023/04/04 04:58:47;;;;;;;6.70;4.13;;;;;;;-146.27;53.02;84138.25;5086729;28;20704;-69
2023/04/04 05:01:13;;;;;;;10.68;4.35;;;;;;;-146.27;51.84;84160.38;5080344;28;20031;-68
2023/04/04 05:03:38;;;;;;;8.02;4.03;;;;;;;-146.27;52.59;84202.56;5088549;28;20483;-66
2023/04/04 05:06:03;;;;;;;10.13;3.63;;;;;;;-146.27;52.17;84188.50;5085845;28;20024;-68
2023/04/04 05:08:29;;;;;;;10.60;4.45;;;;;;;-146.27;55.08;84158.34;5091427;28;20042;-68
2023/04/04 05:10:54;;;;;;;5.57;4.03;;;;;;;-146.27;55.45;84212.63;5098814;28;20040;-68
2023/04/04 05:13:19;;;;;;;8.98;4.50;;;;;;;-146.27;55.17;84096.06;5078168;28;20027;-67
2023/04/04 05:15:46;;;;;;;11.85;4.40;;;;;;;-146.27;55.66;84152.31;5080982;28;20030;-67
2023/04/04 05:18:12;;;;;;;7.03;4.32;;;;;;;-146.27;55.01;84156.34;5081974;28;20085;-68
2023/04/04 05:20:37;;;;;;;6.68;4.25;;;;;;;-146.27;54.99;84164.38;5080333;28;20020;-67
2023/04/04 05:23:02;;;;;;;8.30;4.70;;;;;;;-146.27;55.67;84168.41;5084590;28;20020;-68
2023/04/04 05:25:28;;;;;;;8.20;4.28;;;;;;;-146.27;54.81;84146.28;5089487;28;20060;-68
2023/04/04 05:27:54;;;;;;;8.40;4.45;;;;;;;-146.27;55.31;84116.16;5080983;28;20415;-68
2023/04/04 05:30:20;;;;;;;8.60;4.20;;;;;;;-146.27;55.04;84236.72;5090436;28;20107;-68
2023/04/04 05:32:45;;;;;;;9.25;3.92;;;;;;;-146.27;55.49;84142.28;5076226;28;20556;-69
2023/04/04 05:35:11;;;;;;;10.98;5.00;;;;;;;-146.27;54.86;84162.38;5080883;28;20148;-67
2023/04/04 05:37:39;;;;;;;7.65;4.78;;;;;;;-146.27;55.64;84214.63;5076467;28;20024;-68
2023/04/04 05:40:06;;;;;;;6.90;4.40;;;;;;;-146.27;56.29;84112.13;5083949;28;20020;-68
2023/04/04 05:42:32;;;;;;;6.53;4.30;;;;;;;-146.27;55.31;84160.38;5090422;28;20108;-69
2023/04/04 05:44:57;;;;;;;11.45;5.45;;;;;;;-146.27;55.46;84224.66;5075398;28;20040;-67
2023/04/04 05:47:23;;;;;;;6.07;4.70;;;;;;;-146.27;54.94;84146.28;5084619;28;20032;-69
2023/04/04 05:49:48;;;;;;;9.25;4.47;;;;;;;-146.27;57.86;84132.22;5081515;28;20040;-69
2023/04/04 05:52:13;;;;;;;7.15;3.97;;;;;;;-146.27;54.84;84112.13;5084262;28;20192;-67
2023/04/04 05:54:39;;;;;;;11.45;5.15;;;;;;;-146.27;54.51;84110.13;5084244;28;20064;-68
2023/04/04 05:57:04;;;;;;;9.57;4.82;;;;;;;-146.27;55.03;84138.25;5087495;28;20440;-68
2023/04/04 05:59:29;;;;;;;8.40;4.60;;;;;;;-146.27;54.34;84134.22;5087636;28;20353;-68
2023/04/04 06:01:55;;;;;;;7.65;4.55;;;;;;;-146.27;56.40;84096.06;5089627;28;20359;-69
2023/04/04 06:04:20;;;;;;;10.95;5.15;;;;;;;-146.27;55.65;84126.19;5088388;28;20124;-69
2023/04/04 06:06:46;;;;;;;5.95;4.35;;;;;;;-146.27;55.32;84124.19;5084858;28;20115;-69
2023/04/04 06:09:11;;;;;;;10.00;4.85;;;;;;;-146.27;54.50;84100.06;5083875;28;20490;-69
2023/04/04 06:11:36;;;;;;;6.60;4.35;;;;;;;-146.27;54.33;84096.06;5085929;28;20031;-68
2023/04/04 06:14:02;;;;;;;9.95;4.28;;;;;;;-146.27;54.45;84084.00;5089621;28;20028;-68
2023/04/04 06:16:28;;;;;;;6.85;4.65;;;;;;;-146.27;55.11;84108.09;5087081;28;20513;-68
2023/04/04 06:18:53;;;;;;;8.88;5.50;;;;;;;-146.27;54.47;84100.06;5081056;28;20022;-67
2023/04/04 06:21:19;;;;;;;9.85;4.68;;;;;;;-146.27;55.00;84035.75;5081491;28;20027;-68
2023/04/04 06:23:44;;;;;;;6.90;4.53;;;;;;;-146.27;53.74;84067.91;5084505;28;20102;-68
2023/04/04 06:26:09;;;;;;;10.50;4.97;;;;;;;-146.27;54.73;84043.81;5080070;28;20066;-68
2023/04/04 06:28:35;;;;;;;8.18;4.72;;;;;;;-146.27;53.94;84059.88;5083369;28;20024;-69
2023/04/04 06:31:00;;;;;;;8.00;4.75;;;;;;;-146.27;53.78;84009.63;5081654;28;20077;-69
2023/04/04 06:33:26;;;;;;;11.10;5.07;;;;;;;-146.27;52.85;83957.38;5078479;28;20044;-69
2023/04/04 06:35:51;;;;;;;10.07;4.90;;;;;;;-146.27;53.40;83989.53;5083603;28;20024;-73
2023/04/04 06:38:16;;;;;;;7.97;5.00;;;;;;;-146.27;53.26;83999.59;5082735;28;20048;-68
2023/04/04 06:40:42;;;;;;;7.28;4.55;;;;;;;-146.27;52.70;83959.41;5081721;28;20024;-69
2023/04/04 06:43:07;;;;;;;9.63;5.35;;;;;;;-146.27;51.81;83971.47;5088317;28;20123;-68
2023/04/04 06:45:34;;;;;;;11.57;5.10;;;;;;;-146.27;53.82;84019.69;5095592;28;20032;-68
2023/04/04 06:48:01;;;;;;;12.95;5.07;;;;;;;-146.27;54.47;83981.50;5095114;28;20031;-68
2023/04/04 06:50:32;;;;;;;11.15;4.65;;;;;;;-146.27;53.31;83983.50;5086406;28;20032;-68
2023/04/04 06:52:59;;;;;;;8.50;4.28;;;;;;;-146.27;53.49;83955.38;5086184;28;20040;-70
2023/04/04 06:55:26;;;;;;;8.27;5.00;;;;;;;-146.27;53.18;84005.63;5078655;28;20041;-72
2023/04/04 06:57:51;;;;;;;10.38;5.30;;;;;;;-146.27;53.98;83947.34;5075629;28;20055;-72
2023/04/04 07:00:17;;;;;;;18.20;5.03;;;;;;;-146.27;52.23;83889.06;5077069;28;20055;-71
2023/04/04 07:02:42;;;;;;;9.73;4.60;;;;;;;-146.27;52.17;83959.41;5079936;28;20038;-73
2023/04/04 07:05:09;;;;;;;11.80;5.03;;;;;;;-146.27;54.30;83935.28;5081205;28;20672;-72
2023/04/04 07:07:34;;;;;;;9.45;4.75;;;;;;;-146.27;52.15;83969.44;5081968;28;20111;-72
2023/04/04 07:10:00;;;;;;;8.63;4.95;;;;;;;-146.27;50.23;83895.09;5081025;28;20192;-72
2023/04/04 07:12:25;;;;;;;8.68;4.40;;;;;;;-146.27;50.97;83925.22;5094336;28;20846;-71
2023/04/04 07:14:50;;;;;;;14.75;5.53;;;;;;;-146.27;50.61;83868.97;5077288;28;20532;-72
2023/04/04 07:17:16;;;;;;;10.88;4.97;;;;;;;-146.27;50.43;83818.72;5084819;28;20028;-71
2023/04/04 07:19:41;;;;;;;5.57;3.90;;;;;;;-146.27;49.26;83828.78;5091605;28;20020;-73
2023/04/04 07:22:06;;;;;;;9.38;4.88;;;;;;;-146.27;49.84;83842.84;5081299;28;20083;-72
2023/04/04 07:24:32;;;;;;;5.63;4.20;;;;;;;-146.27;53.11;83822.75;5092373;28;20032;-71
2023/04/04 07:26:57;;;;;;;9.38;4.68;;;;;;;-146.27;50.44;83810.69;5090725;28;20035;-72
2023/04/04 07:29:22;;;;;;;8.20;4.53;;;;;;;-146.27;49.85;83858.91;5084027;28;20028;-71
2023/04/04 07:31:48;;;;;;;8.27;4.45;;;;;;;-146.27;48.30;83798.63;5077729;28;20028;-71
2023/04/04 07:34:13;;;;;;;7.72;4.60;;;;;;;-146.27;49.88;83840.84;5086534;28;20035;-71
2023/04/04 07:36:39;;;;;;;7.40;4.30;;;;;;;-146.27;49.87;83838.81;5092919;28;20027;-71
2023/04/04 07:39:04;;;;;;;8.95;5.13;;;;;;;-146.27;49.66;83806.66;5083248;28;20120;-71
2023/04/04 07:41:30;;;;;;;9.05;4.22;;;;;;;-146.27;50.39;83780.53;5091897;28;20024;-72
2023/04/04 07:43:55;;;;;;;6.63;4.43;;;;;;;-146.27;49.24;83710.22;5094954;28;20025;-72
2023/04/04 07:46:21;;;;;;;8.27;4.57;;;;;;;-146.27;48.87;83706.19;5107621;28;20372;-73
2023/04/04 07:48:46;;;;;;;8.68;4.70;;;;;;;-146.27;46.83;83708.22;5102129;28;20483;-70
2023/04/04 07:51:12;;;;;;;10.57;4.40;;;;;;;-146.27;46.01;83621.81;5104790;28;20036;-71
2023/04/04 07:53:38;;;;;;;10.93;4.53;;;;;;;-146.27;47.27;83629.84;5090464;28;20475;-72
2023/04/04 07:56:06;;;;;;;6.93;4.10;;;;;;;-146.27;47.12;83668.00;5086223;28;20064;-71
2023/04/04 07:58:35;;;;;;;9.20;4.28;;;;;;;-146.27;45.13;83549.47;5090012;28;20028;-72
2023/04/04 08:01:02;;;;;;;7.97;3.88;;;;;;;-146.27;44.84;83587.63;5094130;28;20036;-70
2023/04/04 08:03:28;;;;;;;12.50;4.68;;;;;;;-146.27;44.57;83503.25;5095123;28;20032;-71
2023/04/04 08:05:54;;;;;;;9.73;4.28;;;;;;;-146.27;45.45;83457.03;5108287;28;20424;-72
2023/04/04 08:08:19;;;;;;;10.68;4.72;;;;;;;-146.27;44.01;83539.41;5092965;28;20116;-71
2023/04/04 08:10:45;;;;;;;6.35;4.47;;;;;;;-146.27;43.26;83501.22;5094031;28;20112;-71
2023/04/04 08:13:13;;;;;;;11.65;4.20;;;;;;;-146.27;43.81;83487.16;5081913;28;20054;-72
2023/04/04 08:15:39;;;;;;;6.55;3.72;;;;;;;-146.27;43.32;83420.88;5108842;28;20053;-71
2023/04/04 08:18:05;;;;;;;5.72;3.80;;;;;;;-146.27;41.47;83509.28;5100711;28;20130;-72
2023/04/04 08:20:30;;;;;;;6.18;3.50;;;;;;;-146.27;41.25;83521.34;5105823;28;20024;-73
2023/04/04 08:22:57;;;;;;;7.65;3.50;;;;;;;-146.27;40.16;83461.06;5096963;28;20039;-70
2023/04/04 08:25:22;;;;;;;9.32;3.53;;;;;;;-146.27;40.29;83457.03;5097262;28;20028;-72
2023/04/04 08:27:48;;;;;;;6.45;3.95;;;;;;;-146.27;41.16;83424.88;5088837;28;20033;-71
2023/04/04 08:30:14;;;;;;;5.93;3.50;;;;;;;-146.27;40.73;83473.09;5084623;28;20057;-71
2023/04/04 08:32:41;;;;;;;5.68;3.70;;;;;;;-146.27;40.37;83404.78;5082110;28;20157;-70
2023/04/04 08:35:07;;;;;;;8.68;3.55;;;;;;;-146.27;39.80;83376.66;5081186;28;20035;-72
2023/04/04 08:37:34;;;;;;;5.18;3.17;;;;;;;-146.27;38.92;83306.34;5077724;28;20024;-71
2023/04/04 08:40:00;;;;;;;4.95;2.75;;;;;;;-146.27;38.72;83328.44;5088329;28;20530;-72
2023/04/04 08:42:29;;;;;;;5.68;2.53;;;;;;;-146.27;37.62;83272.19;5091695;28;20099;-71
2023/04/04 08:44:58;;;;;;;3.95;2.72;;;;;;;-146.27;36.06;83322.41;5093641;28;20028;-71
2023/04/04 08:47:25;;;;;;;14.40;3.13;;;;;;;-146.27;36.57;83312.34;5092754;28;20035;-71
2023/04/04 08:49:53;;;;;;;5.47;3.00;;;;;;;-146.27;35.47;83252.09;5096892;28;20103;-71
2023/04/04 08:52:23;;;;;;;6.35;2.75;;;;;;;-146.27;36.08;83234.00;5109590;28;20023;-72
2023/04/04 08:54:51;;;;;;;5.50;2.28;;;;;;;-146.27;34.11;83232.00;5092378;28;20375;-72
2023/04/04 08:57:18;;;;;;;2.78;2.10;;;;;;;-146.27;35.65;83264.13;5087666;28;20034;-71
2023/04/04 08:59:43;;;;;;;4.72;1.90;;;;;;;-146.27;34.69;83191.81;5084273;28;20111;-71
2023/04/04 09:02:08;;;;;;;3.90;2.20;;;;;;;-146.27;35.11;83225.97;5083727;28;20106;-71
2023/04/04 09:04:34;;;;;;;4.18;1.92;;;;;;;-146.27;34.13;83099.38;5085295;28;20034;-71
2023/04/04 09:07:02;;;;;;;6.57;2.40;;;;;;;-146.27;35.00;83127.50;5083542;28;20381;-70
2023/04/04 09:09:28;;;;;;;5.72;2.40;;;;;;;-146.27;33.86;82980.84;5083132;28;20040;-71
2023/04/04 09:11:54;;;;;;;3.65;1.90;;;;;;;-146.27;35.04;83203.88;5079012;28;20027;-71
2023/04/04 09:14:20;;;;;;;3.88;2.13;;;;;;;-146.27;34.64;83025.03;5082836;28;20404;-71
2023/04/04 09:16:45;;;;;;;10.23;2.30;;;;;;;-146.27;34.73;83119.47;5080480;28;20440;-70
2023/04/04 09:19:11;;;;;;;5.60;2.38;;;;;;;-146.27;33.34;83015.00;5095098;28;20459;-72
2023/04/04 09:21:37;;;;;;;4.70;2.38;;;;;;;-146.27;32.80;82928.59;5087259;28;20120;-72
2023/04/04 09:24:03;;;;;;;4.32;2.03;;;;;;;-146.27;33.09;82894.47;5086664;28;20388;-70
2023/04/04 09:26:46;;;;;;;6.78;1.90;;;;;;;-146.27;32.73;82908.50;5090641;28;20027;-72
2023/04/04 09:29:12;;;;;;;4.22;1.88;;;;;;;-146.27;32.84;82826.16;5081861;28;20464;-72
2023/04/04 09:31:37;;;;;;;2.83;1.70;;;;;;;-146.27;31.61;82872.34;5095092;28;20150;-71
2023/04/04 09:34:03;;;;;;;5.65;2.20;;;;;;;-146.27;33.22;82910.53;5087381;28;20125;-72
2023/04/04 09:36:30;;;;;;;5.50;2.20;;;;;;;-146.27;32.19;82886.41;5080138;28;20036;-70
2023/04/04 09:38:56;;;;;;;5.22;2.40;;;;;;;-146.27;32.25;82898.47;5084430;28;20047;-73
2023/04/04 09:41:21;;;;;;;6.50;2.20;;;;;;;-146.27;32.02;82816.09;5089783;28;20055;-71
2023/04/04 09:43:48;;;;;;;4.00;2.10;;;;;;;-146.27;32.72;82814.09;5097586;28;20155;-71
2023/04/04 09:46:17;;;;;;;6.03;2.28;;;;;;;-146.27;31.38;82735.75;5077756;28;20081;-71
2023/04/04 09:48:48;;;;;;;3.40;2.08;;;;;;;-146.27;31.75;82631.28;5086841;28;20039;-71
2023/04/04 09:51:14;;;;;;;5.85;2.20;;;;;;;-146.27;30.88;82701.59;5092321;28;20157;-71
2023/04/04 09:53:40;;;;;;;8.52;2.92;;;;;;;-146.27;31.66;82725.69;5081289;28;20383;-71
2023/04/04 09:56:06;;;;;;;5.38;2.67;;;;;;;-146.27;30.33;82751.81;5089449;28;20024;-71
2023/04/04 09:58:35;;;;;;;5.32;2.85;;;;;;;-146.27;30.23;82687.53;5081781;28;20078;-71
2023/04/04 10:01:02;;;;;;;6.45;2.88;;;;;;;-146.27;30.39;82653.38;5084484;28;20080;-71
2023/04/04 10:03:29;;;;;;;8.07;3.05;;;;;;;-146.27;28.84;82560.97;5090219;28;20027;-71
2023/04/04 10:06:09;;;;;;;4.90;2.70;;;;;;;-146.27;30.69;82526.81;5094009;28;20035;-71
2023/04/04 10:08:38;;;;;;;3.75;2.08;;;;;;;-146.27;30.60;82512.75;5098350;28;20555;-71
2023/04/04 10:11:04;;;;;;;5.45;2.60;;;;;;;-146.27;30.34;82430.38;5099700;28;20051;-71
2023/04/04 10:13:32;;;;;;;4.07;2.45;;;;;;;-146.27;30.34;82500.69;5091644;28;20039;-71
2023/04/04 10:15:59;;;;;;;6.03;2.63;;;;;;;-146.27;30.19;82374.13;5090807;28;20047;-71
2023/04/04 10:18:29;;;;;;;4.80;2.53;;;;;;;-146.27;30.50;82456.50;5084148;28;20024;-71
2023/04/04 10:20:57;;;;;;;5.72;2.50;;;;;;;-146.27;30.73;82504.72;5077698;28;20028;-71
2023/04/04 10:23:26;;;;;;;4.18;2.50;;;;;;;-146.27;30.37;82564.97;5088007;28;20039;-71
2023/04/04 10:25:52;;;;;;;4.63;2.55;;;;;;;-146.27;31.46;82520.78;5081451;28;20031;-71
2023/04/04 10:28:19;;;;;;;4.00;2.83;;;;;;;-146.27;30.32;82370.13;5078243;28;20123;-70
2023/04/04 10:31:00;;;;;;;6.60;3.17;;;;;;;-146.27;30.45;82452.47;5081121;28;20153;-71
2023/04/04 10:34:03;;;;;;;7.57;3.00;;;;;;;-146.27;33.58;82313.88;5079846;28;20168;-75
2023/04/04 10:36:35;;;;;;;6.07;2.67;;;;;;;-146.27;29.64;82261.66;5085053;28;20115;-70
2023/04/04 10:39:12;;;;;;;6.15;3.10;;;;;;;-146.27;26.98;82131.09;5079726;28;20025;-70
2023/04/04 10:41:39;;;;;;;4.63;2.47;;;;;;;-146.27;28.04;82175.28;5087888;28;20073;-71
2023/04/04 10:44:32;;;;;;;6.50;2.50;;;;;;;-146.27;30.49;82090.91;5093865;28;20110;-71
2023/04/04 10:47:06;;;;;;;8.75;2.67;;;;;;;-146.27;29.72;82080.88;5093532;28;20104;-71
2023/04/04 10:49:33;;;;;;;9.70;2.97;;;;;;;-146.27;28.01;82044.72;5079650;28;20024;-72
2023/04/04 10:51:58;;;;;;;6.35;2.50;;;;;;;-146.27;28.46;82303.84;5082940;28;20023;-71
2023/04/04 10:54:26;;;;;;;7.35;2.63;;;;;;;-146.27;29.41;82127.06;5086268;28;20157;-72
2023/04/04 10:56:54;;;;;;;4.18;2.28;;;;;;;-146.27;29.64;82211.44;5081842;28;20499;-72
2023/04/04 10:59:19;;;;;;;2.92;2.10;;;;;;;-146.27;28.92;82092.91;5085762;28;20027;-72
2023/04/04 11:02:01;;;;;;;5.93;2.30;;;;;;;-146.27;27.86;82102.97;5090429;28;20040;-71
2023/04/04 11:04:37;;;;;;;7.43;2.50;;;;;;;-146.27;28.48;81896.06;5090608;28;20066;-72
2023/04/04 11:07:14;;;;;;;5.75;2.05;;;;;;;-146.27;26.66;81839.84;5083044;28;20128;-72
2023/04/04 11:09:49;;;;;;;3.55;2.22;;;;;;;-146.27;28.47;82082.88;5077189;28;20044;-71
2023/04/04 11:12:20;;;;;;;3.75;2.20;;;;;;;-146.27;25.68;81761.50;5080006;28;20032;-71
2023/04/04 11:15:11;;;;;;;4.43;2.75;;;;;;;-146.27;26.69;81942.28;5092121;28;20382;-71